Time;durP1;ratioP1;P1;durP2;ratioP2;P2;SDS_P1;SDS_P2;PMS_P1;PMS_P2;Temp;Humidity;BMP_temperature;BMP_pressure;BME280_temperature;BME280_humidity;BME280_pressure;Samples;Min_cycle;Max_cycle;Signal;HPM_P1;HPM_P2
2023/08/08 00:00:47;;;;;;;0.40;0.40;;;10.40;99.90;;;;;;5055829;28;20280;-69
2023/08/08 00:03:13;;;;;;;1.25;1.17;;;;;;;;;;5055894;28;20170;-69
2023/08/08 00:05:39;;;;;;;0.95;0.95;;;10.60;99.90;;;;;;5055453;28;20205;-70
2023/08/08 00:08:06;;;;;;;0.50;0.50;;;10.40;99.90;;;;;;5055764;28;20206;-70
2023/08/08 00:10:32;;;;;;;0.30;0.30;;;10.50;99.90;;;;;;5055594;28;20217;-69
2023/08/08 00:12:57;;;;;;;0.60;0.60;;;10.60;99.90;;;;;;5055499;28;20208;-69
2023/08/08 00:15:23;;;;;;;0.97;0.77;;;10.50;99.90;;;;;;5055655;28;20209;-70
2023/08/08 00:17:49;;;;;;;0.70;0.70;;;10.60;99.90;;;;;;5055616;28;20178;-70
2023/08/08 00:20:15;;;;;;;0.67;0.40;;;10.60;99.90;;;;;;5055821;28;20235;-71
2023/08/08 00:22:41;;;;;;;0.50;0.50;;;10.80;99.90;;;;;;5055309;28;20547;-70
2023/08/08 00:25:07;;;;;;;0.70;0.70;;;10.90;99.90;;;;;;5055480;28;20413;-70
2023/08/08 00:27:33;;;;;;;0.40;0.40;;;10.70;99.90;;;;;;5055311;28;20885;-70
2023/08/08 00:29:58;;;;;;;0.53;0.53;;;10.70;99.90;;;;;;5055685;28;20177;-70
2023/08/08 00:32:24;;;;;;;0.40;0.40;;;10.50;99.90;;;;;;5055009;28;20201;-69
2023/08/08 00:34:49;;;;;;;0.70;0.70;;;10.60;99.90;;;;;;5055200;28;20202;-70
2023/08/08 00:37:15;;;;;;;1.60;1.50;;;10.60;99.90;;;;;;5055153;28;20260;-69
2023/08/08 00:39:45;;;;;;;0.40;0.40;;;10.30;99.90;;;;;;5054967;28;20170;-70
2023/08/08 00:42:14;;;;;;;1.75;1.35;;;10.40;99.90;;;;;;5054977;28;20182;-69
2023/08/08 00:44:40;;;;;;;0.30;0.30;;;10.30;99.90;;;;;;5055221;28;20236;-70
2023/08/08 00:47:10;;;;;;;0.30;0.30;;;10.70;99.90;;;;;;5055077;28;20594;-70
2023/08/08 00:49:37;;;;;;;0.50;0.40;;;10.30;99.90;;;;;;5053589;28;20185;-68
2023/08/08 00:52:03;;;;;;;0.60;0.60;;;10.50;99.90;;;;;;5054699;28;20202;-69
2023/08/08 00:54:30;;;;;;;0.50;0.50;;;10.00;99.90;;;;;;5054750;28;20229;-70
2023/08/08 00:56:56;;;;;;;0.85;0.50;;;10.20;99.90;;;;;;5054807;28;20184;-69
2023/08/08 00:59:23;;;;;;;0.70;0.70;;;10.10;99.90;;;;;;5054582;28;20261;-69
2023/08/08 01:01:49;;;;;;;0.30;0.30;;;10.00;99.90;;;;;;5054439;28;20216;-70
2023/08/08 01:04:16;;;;;;;1.93;1.23;;;10.00;99.90;;;;;;5054603;28;20179;-71
2023/08/08 01:07:29;;;;;;;2.15;1.08;;;9.90;99.90;;;;;;5054631;28;20170;-70
2023/08/08 01:10:08;;;;;;;0.30;0.30;;;10.10;99.90;;;;;;5052992;28;20608;-69
2023/08/08 01:12:39;;;;;;;0.60;0.60;;;10.00;99.90;;;;;;5054321;28;20178;-70
2023/08/08 01:15:07;;;;;;;1.70;0.95;;;10.30;99.90;;;;;;5054674;28;20624;-69
2023/08/08 01:17:33;;;;;;;0.63;0.63;;;10.40;99.90;;;;;;5054485;28;20253;-70
2023/08/08 01:19:58;;;;;;;0.60;0.53;;;10.20;99.90;;;;;;5054334;28;20194;-70
2023/08/08 01:22:35;;;;;;;0.30;0.30;;;9.90;99.90;;;;;;5054021;28;20421;-69
2023/08/08 01:25:02;;;;;;;0.30;0.30;;;9.80;99.90;;;;;;5054227;28;20216;-69
2023/08/08 01:27:28;;;;;;;0.50;0.50;;;9.60;99.90;;;;;;5054171;28;20170;-71
2023/08/08 01:29:54;;;;;;;0.60;0.60;;;9.90;99.90;;;;;;5054096;28;20171;-70
2023/08/08 01:32:19;;;;;;;0.50;0.50;;;9.70;99.90;;;;;;5053834;28;20204;-70
2023/08/08 01:34:45;;;;;;;0.63;0.63;;;9.60;99.90;;;;;;5053883;28;20463;-69
2023/08/08 01:37:52;;;;;;;0.83;0.83;;;9.60;99.90;;;;;;5054068;28;20181;-69
2023/08/08 01:40:19;;;;;;;0.60;0.60;;;9.50;99.90;;;;;;5052750;28;20186;-69
2023/08/08 01:42:47;;;;;;;0.85;0.85;;;9.70;99.90;;;;;;5053681;28;20169;-69
2023/08/08 01:45:15;;;;;;;0.45;0.45;;;9.80;99.90;;;;;;5053800;28;20174;-70
2023/08/08 01:47:41;;;;;;;0.45;0.45;;;9.90;99.90;;;;;;5053842;28;20170;-70
2023/08/08 01:50:08;;;;;;;0.70;0.70;;;9.80;99.90;;;;;;5053705;28;20197;-70
2023/08/08 01:52:34;;;;;;;0.40;0.40;;;9.70;99.90;;;;;;5053617;28;20212;-70
2023/08/08 01:55:00;;;;;;;0.57;0.57;;;9.70;99.90;;;;;;5053508;28;20204;-70
2023/08/08 01:57:26;;;;;;;1.70;0.93;;;9.60;99.90;;;;;;5053647;28;20583;-70
2023/08/08 01:59:52;;;;;;;0.40;0.40;;;9.70;99.90;;;;;;5053734;28;20174;-70
2023/08/08 02:02:18;;;;;;;0.30;0.30;;;9.40;99.90;;;;;;5053031;28;20576;-70
2023/08/08 02:04:44;;;;;;;0.83;0.83;;;9.50;99.90;;;;;;5053482;28;20178;-69
2023/08/08 02:07:09;;;;;;;0.40;0.40;;;9.50;99.90;;;;;;5053468;28;20401;-70
2023/08/08 02:09:35;;;;;;;0.87;0.87;;;9.50;99.90;;;;;;5053601;28;20189;-69
2023/08/08 02:12:01;;;;;;;0.40;0.40;;;9.50;99.90;;;;;;5053160;28;20255;-70
2023/08/08 02:14:26;;;;;;;0.30;0.30;;;9.60;99.90;;;;;;5053309;28;20190;-69
2023/08/08 02:16:52;;;;;;;0.37;0.37;;;9.60;99.90;;;;;;5053474;28;20166;-69
2023/08/08 02:19:17;;;;;;;0.87;0.87;;;9.20;99.90;;;;;;5053333;28;20181;-70
2023/08/08 02:21:43;;;;;;;1.43;1.37;;;9.40;99.90;;;;;;5053279;28;20629;-70
2023/08/08 02:24:09;;;;;;;1.80;1.70;;;9.50;99.90;;;;;;5053184;28;20303;-69
2023/08/08 02:26:34;;;;;;;0.30;0.30;;;9.80;99.90;;;;;;5053448;28;20231;-70
2023/08/08 02:29:00;;;;;;;1.33;1.00;;;9.20;99.90;;;;;;5053231;28;20178;-69
2023/08/08 02:31:26;;;;;;;0.40;0.40;;;9.20;99.90;;;;;;5053002;28;20198;-71
2023/08/08 02:33:51;;;;;;;0.40;0.40;;;9.10;99.90;;;;;;5053110;28;20198;-70
2023/08/08 02:36:18;;;;;;;0.33;0.33;;;9.30;99.90;;;;;;5053350;28;20170;-69
2023/08/08 02:38:44;;;;;;;0.40;0.40;;;9.50;99.90;;;;;;5053045;28;20919;-69
2023/08/08 02:41:10;;;;;;;0.40;0.40;;;9.30;99.90;;;;;;5052762;28;20591;-70
2023/08/08 02:43:36;;;;;;;0.37;0.37;;;9.10;99.90;;;;;;5052909;28;20177;-68
2023/08/08 02:46:01;;;;;;;0.43;0.43;;;9.20;99.90;;;;;;5053163;28;20174;-68
2023/08/08 02:48:28;;;;;;;0.40;0.40;;;9.20;99.90;;;;;;5052956;28;20193;-70
2023/08/08 02:50:54;;;;;;;1.10;1.10;;;9.30;99.90;;;;;;5052625;28;20206;-70
2023/08/08 02:53:19;;;;;;;0.33;0.33;;;9.10;99.90;;;;;;5052793;28;20540;-69
2023/08/08 02:55:46;;;;;;;0.93;0.93;;;9.20;99.90;;;;;;5053103;28;20174;-70
2023/08/08 02:58:12;;;;;;;0.57;0.57;;;9.40;99.90;;;;;;5052787;28;20173;-69
2023/08/08 03:00:37;;;;;;;0.30;0.30;;;9.20;99.90;;;;;;5052961;28;20198;-69
2023/08/08 03:03:03;;;;;;;1.03;0.40;;;9.40;99.90;;;;;;5052683;28;20163;-69
2023/08/08 03:05:29;;;;;;;11.80;2.40;;;9.30;99.90;;;;;;5052856;28;20169;-69
2023/08/08 03:07:54;;;;;;;0.40;0.40;;;9.20;99.90;;;;;;5052900;28;20574;-70
2023/08/08 03:10:20;;;;;;;0.70;0.67;;;9.10;99.90;;;;;;5052837;28;20201;-69
2023/08/08 03:12:46;;;;;;;0.40;0.40;;;9.20;99.90;;;;;;5053410;28;20173;-69
2023/08/08 03:15:12;;;;;;;0.37;0.37;;;9.30;99.90;;;;;;5056706;28;20582;-70
2023/08/08 03:17:37;;;;;;;0.50;0.50;;;9.50;99.90;;;;;;5056034;28;20162;-70
2023/08/08 03:20:05;;;;;;;0.37;0.37;;;9.00;99.90;;;;;;5055409;28;20166;-69
2023/08/08 03:22:31;;;;;;;0.68;0.68;;;9.30;99.90;;;;;;5056203;28;20216;-70
2023/08/08 03:24:56;;;;;;;0.47;0.37;;;8.80;99.90;;;;;;5056597;28;20574;-69
2023/08/08 03:27:22;;;;;;;0.40;0.40;;;8.80;99.90;;;;;;5056386;28;20559;-69
2023/08/08 03:29:48;;;;;;;0.40;0.40;;;9.10;99.90;;;;;;5056373;28;20171;-69
2023/08/08 03:32:14;;;;;;;0.40;0.40;;;;;;;;;;5054706;28;20519;-69
2023/08/08 03:34:39;;;;;;;0.30;0.30;;;9.10;99.90;;;;;;5055981;28;20186;-70
2023/08/08 03:37:05;;;;;;;1.33;0.73;;;9.10;99.90;;;;;;5056130;28;20416;-70
2023/08/08 03:39:31;;;;;;;0.60;0.50;;;9.10;99.90;;;;;;5056096;28;20170;-69
2023/08/08 03:41:56;;;;;;;0.40;0.40;;;9.10;99.90;;;;;;5055701;28;20235;-69
2023/08/08 03:44:22;;;;;;;0.53;0.53;;;9.20;99.90;;;;;;5056167;28;20193;-69
2023/08/08 03:46:48;;;;;;;0.40;0.40;;;9.00;99.90;;;;;;5055688;28;20174;-70
2023/08/08 03:49:13;;;;;;;2.10;2.00;;;9.00;99.90;;;;;;5055879;28;20200;-69
2023/08/08 03:51:39;;;;;;;1.23;1.23;;;8.60;99.90;;;;;;5053802;28;20198;-69
2023/08/08 03:54:05;;;;;;;1.23;0.57;;;;;;;;;;5055796;28;20196;-69
2023/08/08 03:56:30;;;;;;;0.43;0.43;;;8.90;99.90;;;;;;5055897;28;20167;-68
2023/08/08 03:58:58;;;;;;;0.43;0.43;;;8.70;99.90;;;;;;5055987;28;20407;-69
2023/08/08 04:01:23;;;;;;;0.73;0.73;;;8.80;99.90;;;;;;5055703;28;20186;-70
2023/08/08 04:03:49;;;;;;;0.63;0.63;;;8.90;99.90;;;;;;5055841;28;20181;-69
2023/08/08 04:06:14;;;;;;;1.23;0.50;;;8.60;99.90;;;;;;5055930;28;20205;-70
2023/08/08 04:08:40;;;;;;;0.70;0.70;;;9.00;99.90;;;;;;5055920;28;20299;-70
2023/08/08 04:11:06;;;;;;;0.40;0.40;;;8.90;99.90;;;;;;5055443;28;20555;-70
2023/08/08 04:13:31;;;;;;;1.93;0.70;;;9.20;99.90;;;;;;5055626;28;20194;-70
2023/08/08 04:15:58;;;;;;;0.40;0.40;;;9.10;99.90;;;;;;5055713;28;20223;-69
2023/08/08 04:18:25;;;;;;;0.57;0.57;;;9.10;99.90;;;;;;5055521;28;20638;-69
2023/08/08 04:20:51;;;;;;;0.73;0.73;;;9.10;99.90;;;;;;5055487;28;20551;-69
2023/08/08 04:23:16;;;;;;;0.60;0.60;;;8.90;99.90;;;;;;5055332;28;20174;-69
2023/08/08 04:25:42;;;;;;;0.50;0.50;;;9.20;99.90;;;;;;5055426;28;20193;-70
2023/08/08 04:28:08;;;;;;;0.30;0.30;;;9.30;99.90;;;;;;5055765;28;20170;-70
2023/08/08 04:30:33;;;;;;;0.30;0.30;;;8.90;99.90;;;;;;5055462;28;20191;-70
2023/08/08 04:32:59;;;;;;;1.07;0.60;;;9.10;99.90;;;;;;5055292;28;20759;-69
2023/08/08 04:35:25;;;;;;;0.30;0.30;;;9.30;99.90;;;;;;5055068;28;20209;-69
2023/08/08 04:37:50;;;;;;;0.30;0.30;;;9.60;99.90;;;;;;5055351;28;20634;-70
2023/08/08 04:40:16;;;;;;;0.83;0.50;;;9.10;99.90;;;;;;5055184;28;20166;-70
2023/08/08 04:42:42;;;;;;;0.40;0.40;;;9.20;99.90;;;;;;5054909;28;20660;-70
2023/08/08 04:45:08;;;;;;;0.60;0.60;;;9.30;99.90;;;;;;5054905;28;20272;-69
2023/08/08 04:47:33;;;;;;;0.50;0.50;;;9.20;99.90;;;;;;5054916;28;20170;-68
2023/08/08 04:49:59;;;;;;;0.70;0.70;;;9.40;99.90;;;;;;5054747;28;20723;-68
2023/08/08 04:52:25;;;;;;;0.30;0.30;;;9.20;99.90;;;;;;5054527;28;20186;-70
2023/08/08 04:54:50;;;;;;;0.30;0.30;;;9.50;99.90;;;;;;5054824;28;20224;-69
2023/08/08 04:57:16;;;;;;;0.67;0.67;;;9.60;99.90;;;;;;5054925;28;20526;-69
2023/08/08 04:59:42;;;;;;;0.73;0.73;;;;;;;;;;5054981;28;20253;-70
2023/08/08 05:02:08;;;;;;;0.77;0.50;;;9.40;99.90;;;;;;5054524;28;20186;-69
2023/08/08 05:04:34;;;;;;;0.67;0.67;;;9.60;99.90;;;;;;5054855;28;20537;-69
2023/08/08 05:06:59;;;;;;;1.03;1.03;;;9.70;99.90;;;;;;5054709;28;20170;-70
2023/08/08 05:09:26;;;;;;;0.77;0.77;;;9.80;99.90;;;;;;5054655;28;20532;-69
2023/08/08 05:11:53;;;;;;;0.65;0.65;;;10.00;99.90;;;;;;5054434;28;20277;-69
2023/08/08 05:14:19;;;;;;;0.50;0.50;;;10.20;99.90;;;;;;5054512;28;20248;-68
2023/08/08 05:16:44;;;;;;;0.70;0.70;;;10.30;99.90;;;;;;5054540;28;20158;-69
2023/08/08 05:19:10;;;;;;;0.40;0.40;;;10.40;99.90;;;;;;5054648;28;20488;-70
2023/08/08 05:21:35;;;;;;;3.27;1.60;;;10.90;99.90;;;;;;5054473;28;20614;-70
2023/08/08 05:24:01;;;;;;;0.60;0.60;;;10.90;99.90;;;;;;5054712;28;20257;-69
2023/08/08 05:26:27;;;;;;;0.40;0.40;;;11.80;99.90;;;;;;5054413;28;20596;-70
2023/08/08 05:28:52;;;;;;;0.80;0.80;;;11.80;99.90;;;;;;5054364;28;20630;-69
2023/08/08 05:31:18;;;;;;;0.70;0.70;;;13.20;99.90;;;;;;5053900;28;20193;-69
2023/08/08 05:33:44;;;;;;;0.50;0.50;;;12.80;99.90;;;;;;5054124;28;20198;-70
2023/08/08 05:36:09;;;;;;;0.50;0.50;;;13.00;99.90;;;;;;5053576;28;20166;-70
2023/08/08 05:38:35;;;;;;;0.47;0.47;;;13.50;99.90;;;;;;5054057;28;20174;-70
2023/08/08 05:41:01;;;;;;;0.70;0.70;;;;;;;;;;5054068;28;20190;-69
2023/08/08 05:43:28;;;;;;;1.37;1.07;;;13.90;99.90;;;;;;5054054;28;20171;-70
2023/08/08 05:45:54;;;;;;;0.93;0.93;;;14.00;99.90;;;;;;5053979;28;20413;-70
2023/08/08 05:48:20;;;;;;;0.40;0.40;;;14.10;99.60;;;;;;5054016;28;20405;-70
2023/08/08 05:50:45;;;;;;;0.50;0.50;;;14.20;99.90;;;;;;5053392;28;20217;-70
2023/08/08 05:53:11;;;;;;;1.33;0.83;;;14.40;99.00;;;;;;5053836;28;20174;-70
2023/08/08 05:55:37;;;;;;;1.87;1.77;;;14.60;98.50;;;;;;5053696;28;20612;-70
2023/08/08 05:58:04;;;;;;;1.20;1.20;;;14.60;99.90;;;;;;5053787;28;20407;-70
2023/08/08 06:00:30;;;;;;;0.80;0.80;;;14.90;98.10;;;;;;5053708;28;20189;-70
2023/08/08 06:02:56;;;;;;;0.77;0.77;;;14.80;97.70;;;;;;5053400;28;20415;-70
2023/08/08 06:05:24;;;;;;;0.77;0.77;;;14.80;99.90;;;;;;5053554;28;20966;-70
2023/08/08 06:07:50;;;;;;;0.60;0.60;;;14.70;97.60;;;;;;5053654;28;20174;-70
2023/08/08 06:10:16;;;;;;;0.93;0.63;;;14.90;99.90;;;;;;5053468;28;20457;-70
2023/08/08 06:12:41;;;;;;;1.50;1.40;;;14.60;97.40;;;;;;5053431;28;20181;-69
2023/08/08 06:15:08;;;;;;;0.70;0.70;;;14.50;97.30;;;;;;5053613;28;20204;-70
2023/08/08 06:17:34;;;;;;;0.63;0.63;;;14.40;97.50;;;;;;5053461;28;20257;-69
2023/08/08 06:20:01;;;;;;;0.47;0.47;;;14.60;99.90;;;;;;5053536;28;20520;-70
2023/08/08 06:22:27;;;;;;;0.50;0.50;;;14.60;98.60;;;;;;5053161;28;20227;-70
2023/08/08 06:24:52;;;;;;;0.53;0.53;;;14.90;98.80;;;;;;5053391;28;20401;-70
2023/08/08 06:27:18;;;;;;;0.60;0.40;;;15.20;98.60;;;;;;5053368;28;20181;-70
2023/08/08 06:29:44;;;;;;;0.60;0.50;;;;;;;;;;5053416;28;20630;-71
2023/08/08 06:32:10;;;;;;;0.83;0.83;;;15.60;97.50;;;;;;5052938;28;20200;-70
2023/08/08 06:34:35;;;;;;;1.00;0.80;;;15.90;97.60;;;;;;5053236;28;20471;-70
2023/08/08 06:37:01;;;;;;;0.60;0.60;;;16.40;96.90;;;;;;5053252;28;20177;-70
2023/08/08 06:39:27;;;;;;;1.17;1.17;;;16.70;96.50;;;;;;5053345;28;20305;-71
2023/08/08 06:41:52;;;;;;;2.73;0.70;;;17.00;96.30;;;;;;5053003;28;20194;-70
2023/08/08 06:44:18;;;;;;;0.40;0.40;;;17.50;95.80;;;;;;5053132;28;20183;-71
2023/08/08 06:46:44;;;;;;;1.37;1.27;;;18.30;94.20;;;;;;5053048;28;20182;-71
2023/08/08 06:49:09;;;;;;;0.40;0.40;;;19.00;93.20;;;;;;5056463;28;20434;-71
2023/08/08 06:51:35;;;;;;;0.50;0.50;;;19.40;91.40;;;;;;5057039;28;20205;-70
2023/08/08 06:54:01;;;;;;;0.70;0.70;;;19.50;91.00;;;;;;5057164;28;20197;-71
2023/08/08 06:56:27;;;;;;;1.83;0.70;;;19.50;91.60;;;;;;5057155;28;20542;-70
2023/08/08 06:58:53;;;;;;;0.40;0.40;;;19.50;91.60;;;;;;5057267;28;20401;-69
2023/08/08 07:01:19;;;;;;;0.57;0.50;;;19.60;91.70;;;;;;5056914;28;20670;-71
2023/08/08 07:03:45;;;;;;;1.30;1.20;;;;;;;;;;5057192;28;20508;-70
2023/08/08 07:06:10;;;;;;;0.77;0.77;;;19.50;90.70;;;;;;5057048;28;20205;-71
2023/08/08 07:08:39;;;;;;;0.80;0.53;;;19.30;91.90;;;;;;5057008;28;20444;-69
2023/08/08 07:11:06;;;;;;;0.40;0.40;;;19.30;92.60;;;;;;5056770;28;20217;-70
2023/08/08 07:13:32;;;;;;;0.40;0.40;;;19.60;93.20;;;;;;5056990;28;20414;-71
2023/08/08 07:15:57;;;;;;;0.40;0.40;;;20.00;92.60;;;;;;5056857;28;20754;-70
2023/08/08 07:18:23;;;;;;;0.40;0.40;;;20.30;92.30;;;;;;5056439;28;20408;-72
2023/08/08 07:20:49;;;;;;;0.50;0.50;;;20.70;91.70;;;;;;5056150;28;20666;-71
2023/08/08 07:23:16;;;;;;;0.57;0.57;;;21.00;90.70;;;;;;5057033;28;20171;-71
2023/08/08 07:25:42;;;;;;;0.50;0.50;;;21.20;90.10;;;;;;5056944;28;20411;-72
2023/08/08 07:28:08;;;;;;;0.43;0.43;;;21.30;89.10;;;;;;5056012;28;20431;-71
2023/08/08 07:30:34;;;;;;;0.90;0.50;;;21.20;89.70;;;;;;5057238;28;20432;-70
2023/08/08 07:33:00;;;;;;;0.30;0.30;;;20.90;88.70;;;;;;5056456;28;20397;-70
2023/08/08 07:35:25;;;;;;;0.70;0.40;;;20.60;89.70;;;;;;5056570;28;20462;-70
2023/08/08 07:37:51;;;;;;;0.67;0.60;;;20.40;89.80;;;;;;5056502;28;20200;-70
2023/08/08 07:40:18;;;;;;;0.77;0.70;;;20.00;99.90;;;;;;5056297;28;20624;-70
2023/08/08 07:42:45;;;;;;;0.30;0.30;;;20.00;91.70;;;;;;5056407;28;20184;-70
2023/08/08 07:45:11;;;;;;;0.63;0.63;;;19.80;90.90;;;;;;5055691;28;20405;-69
2023/08/08 07:47:36;;;;;;;0.40;0.40;;;19.70;90.60;;;;;;5056344;28;20412;-74
2023/08/08 07:50:02;;;;;;;1.10;1.10;;;;;;;;;;5055926;28;20831;-70
2023/08/08 07:52:28;;;;;;;0.60;0.60;;;19.10;88.80;;;;;;5055952;28;20581;-71
2023/08/08 07:54:54;;;;;;;0.53;0.53;;;19.90;90.70;;;;;;5056085;28;20456;-71
2023/08/08 07:57:19;;;;;;;0.90;0.70;;;19.70;99.40;;;;;;5056231;28;20218;-71
2023/08/08 07:59:45;;;;;;;0.50;0.50;;;20.00;87.10;;;;;;5054982;28;20252;-71
2023/08/08 08:02:10;;;;;;;0.40;0.40;;;20.20;86.90;;;;;;5056151;28;20318;-70
2023/08/08 08:04:36;;;;;;;0.50;0.40;;;20.70;84.10;;;;;;5055028;28;20175;-70
2023/08/08 08:07:02;;;;;;;1.47;0.60;;;20.70;83.20;;;;;;5056229;28;20173;-71
2023/08/08 08:09:28;;;;;;;0.40;0.40;;;20.70;82.80;;;;;;5056267;28;20252;-73
2023/08/08 08:11:54;;;;;;;5.20;2.60;;;20.80;82.80;;;;;;5055648;28;20434;-72
2023/08/08 08:14:21;;;;;;;0.60;0.60;;;21.00;80.60;;;;;;5055565;28;20448;-71
2023/08/08 08:16:48;;;;;;;0.60;0.60;;;21.50;79.90;;;;;;5055953;28;20174;-71
2023/08/08 08:19:13;;;;;;;0.70;0.70;;;22.30;79.60;;;;;;5055964;28;20847;-72
2023/08/08 08:21:39;;;;;;;0.30;0.30;;;23.60;76.70;;;;;;5055275;28;20440;-72
2023/08/08 08:24:05;;;;;;;0.40;0.40;;;24.80;74.20;;;;;;5055210;28;20185;-72
2023/08/08 08:26:32;;;;;;;0.37;0.37;;;25.80;72.10;;;;;;5055638;28;20177;-70
2023/08/08 08:28:58;;;;;;;0.40;0.40;;;26.40;65.30;;;;;;5055321;28;20885;-72
2023/08/08 08:31:23;;;;;;;0.63;0.50;;;26.60;63.10;;;;;;5055047;28;20424;-70
2023/08/08 08:33:49;;;;;;;0.50;0.50;;;27.20;60.90;;;;;;5055479;28;20455;-71
2023/08/08 08:36:15;;;;;;;0.63;0.50;;;27.50;57.20;;;;;;5055526;28;20548;-71
2023/08/08 08:38:40;;;;;;;0.60;0.47;;;28.00;58.60;;;;;;5055447;28;20178;-72
2023/08/08 08:41:08;;;;;;;0.40;0.40;;;28.60;56.40;;;;;;5054909;28;20199;-70
2023/08/08 08:43:34;;;;;;;0.40;0.40;;;29.30;55.20;;;;;;5055111;28;20174;-71
2023/08/08 08:46:02;;;;;;;0.50;0.50;;;28.70;55.00;;;;;;5055183;28;20416;-71
2023/08/08 08:48:28;;;;;;;0.87;0.77;;;28.90;52.30;;;;;;5055148;28;20173;-72
2023/08/08 08:50:53;;;;;;;1.10;0.67;;;29.50;49.10;;;;;;5054708;28;20448;-71
2023/08/08 08:53:22;;;;;;;0.50;0.47;;;29.50;49.10;;;;;;5054980;28;20185;-70
2023/08/08 08:55:48;;;;;;;0.50;0.50;;;29.40;50.90;;;;;;5054854;28;20170;-71
2023/08/08 08:58:16;;;;;;;0.40;0.40;;;29.90;49.70;;;;;;5055294;28;20393;-73
2023/08/08 09:00:45;;;;;;;0.87;0.70;;;30.00;47.60;;;;;;5054615;28;20405;-71
2023/08/08 09:03:11;;;;;;;0.40;0.40;;;29.90;46.00;;;;;;5053396;28;20393;-70
2023/08/08 09:05:40;;;;;;;0.93;0.60;;;29.80;49.00;;;;;;5053255;28;20405;-70
2023/08/08 09:08:06;;;;;;;0.60;0.60;;;29.50;48.40;;;;;;5053664;28;20401;-71
2023/08/08 09:10:32;;;;;;;0.50;0.43;;;29.20;46.20;;;;;;5053167;28;20413;-71
2023/08/08 09:12:58;;;;;;;0.60;0.60;;;28.90;44.90;;;;;;5054567;28;20491;-71
2023/08/08 09:15:23;;;;;;;0.40;0.40;;;29.30;46.20;;;;;;5054030;28;20201;-72
2023/08/08 09:17:49;;;;;;;0.70;0.70;;;29.50;43.00;;;;;;5054647;28;20615;-72
2023/08/08 09:20:16;;;;;;;1.03;0.80;;;29.30;68.10;;;;;;5053441;28;20645;-74
2023/08/08 09:22:42;;;;;;;1.50;1.03;;;29.60;45.60;;;;;;5054809;28;20182;-72
2023/08/08 09:25:08;;;;;;;0.40;0.40;;;29.80;44.70;;;;;;5054263;28;20897;-72
2023/08/08 09:27:34;;;;;;;1.33;1.00;;;29.40;44.40;;;;;;5054322;28;20654;-72
2023/08/08 09:30:00;;;;;;;0.30;0.30;;;29.10;44.40;;;;;;5054346;28;20174;-72
2023/08/08 09:32:31;;;;;;;1.27;0.50;;;28.30;43.90;;;;;;5054026;28;20427;-71
2023/08/08 09:34:57;;;;;;;0.87;0.83;;;27.00;49.30;;;;;;5054119;28;20205;-73
2023/08/08 09:37:23;;;;;;;0.37;0.37;;;;;;;;;;5054302;28;20808;-73
2023/08/08 09:39:59;;;;;;;1.10;1.10;;;26.70;49.80;;;;;;5054167;28;20413;-72
2023/08/08 09:42:29;;;;;;;0.70;0.57;;;27.00;49.00;;;;;;5053807;28;20447;-72
2023/08/08 09:44:56;;;;;;;0.60;0.57;;;27.00;49.70;;;;;;5054042;28;20427;-72
2023/08/08 09:47:22;;;;;;;1.00;0.90;;;26.70;47.90;;;;;;5054116;28;20505;-71
2023/08/08 09:49:48;;;;;;;0.40;0.40;;;26.70;47.50;;;;;;5053896;28;20516;-71
2023/08/08 09:52:15;;;;;;;0.57;0.50;;;26.60;50.50;;;;;;5053529;28;20684;-73
2023/08/08 09:54:41;;;;;;;1.57;0.60;;;26.90;49.70;;;;;;5053991;28;20448;-71
2023/08/08 09:57:07;;;;;;;0.60;0.57;;;27.10;50.50;;;;;;5053836;28;20401;-73
2023/08/08 09:59:35;;;;;;;0.60;0.60;;;27.30;47.50;;;;;;5053816;28;20403;-73
2023/08/08 10:02:01;;;;;;;0.40;0.40;;;27.30;50.60;;;;;;5053418;28;20486;-72
2023/08/08 10:04:27;;;;;;;0.40;0.40;;;26.90;49.40;;;;;;5053730;28;20405;-72
2023/08/08 10:06:52;;;;;;;0.50;0.50;;;26.40;50.50;;;;;;5053748;28;20436;-73
2023/08/08 10:09:18;;;;;;;1.13;0.60;;;25.60;51.00;;;;;;5053792;28;20235;-73
2023/08/08 10:11:45;;;;;;;1.23;0.50;;;25.70;54.10;;;;;;5053387;28;20186;-72
2023/08/08 10:14:14;;;;;;;0.40;0.40;;;26.20;50.70;;;;;;5053560;28;20525;-72
2023/08/08 10:16:41;;;;;;;0.60;0.60;;;26.40;52.40;;;;;;5053520;28;20907;-73
2023/08/08 10:19:07;;;;;;;0.50;0.50;;;25.50;52.40;;;;;;5053588;28;20734;-73
2023/08/08 10:21:41;;;;;;;2.33;0.63;;;25.20;56.40;;;;;;5052984;28;20425;-72
2023/08/08 10:24:09;;;;;;;0.80;0.80;;;24.60;53.20;;;;;;5053433;28;20176;-73
2023/08/08 10:26:57;;;;;;;0.50;0.50;;;24.70;54.40;;;;;;5053316;28;20529;-72
2023/08/08 10:29:24;;;;;;;0.40;0.40;;;25.20;52.80;;;;;;5053597;28;20412;-73
2023/08/08 10:31:57;;;;;;;0.50;0.50;;;24.90;49.60;;;;;;5053026;28;20403;-72
2023/08/08 10:34:35;;;;;;;0.50;0.40;;;24.10;52.50;;;;;;5053600;28;20911;-73
2023/08/08 10:37:12;;;;;;;0.60;0.47;;;23.40;55.50;;;;;;5053338;28;20404;-71
2023/08/08 10:39:48;;;;;;;0.70;0.70;;;23.60;57.30;;;;;;5053482;28;20408;-73
2023/08/08 10:42:18;;;;;;;0.50;0.50;;;24.60;50.40;;;;;;5051588;28;20922;-73
2023/08/08 10:44:52;;;;;;;0.60;0.60;;;24.60;50.90;;;;;;5053154;28;20875;-72
2023/08/08 10:47:22;;;;;;;0.50;0.50;;;24.70;55.60;;;;;;5053234;28;20383;-73
2023/08/08 10:50:02;;;;;;;0.80;0.50;;;25.20;51.80;;;;;;5053113;28;20407;-73
2023/08/08 10:52:29;;;;;;;0.43;0.40;;;25.10;52.30;;;;;;5052823;28;20427;-73
2023/08/08 10:54:55;;;;;;;0.50;0.50;;;24.70;52.40;;;;;;5053103;28;20480;-73
2023/08/08 10:57:24;;;;;;;1.57;0.80;;;24.30;53.80;;;;;;5053058;28;20404;-73
2023/08/08 10:59:50;;;;;;;0.40;0.40;;;24.70;54.40;;;;;;5053080;28;20198;-72
2023/08/08 11:02:16;;;;;;;1.20;0.80;;;24.80;53.00;;;;;;5052881;28;20832;-71
2023/08/08 11:04:43;;;;;;;0.40;0.40;;;25.00;52.90;;;;;;5053201;28;20261;-72
2023/08/08 11:07:09;;;;;;;0.50;0.50;;;24.90;50.70;;;;;;5053129;28;20458;-73
2023/08/08 11:09:35;;;;;;;0.57;0.57;;;24.50;54.20;;;;;;5052865;28;20895;-71
2023/08/08 11:12:00;;;;;;;0.50;0.50;;;24.30;56.60;;;;;;5052613;28;20479;-72
2023/08/08 11:14:26;;;;;;;0.50;0.50;;;24.10;53.70;;;;;;5053009;28;20201;-73
2023/08/08 11:16:52;;;;;;;1.47;0.73;;;24.20;53.00;;;;;;5052899;28;20202;-71
2023/08/08 11:19:22;;;;;;;0.60;0.40;;;24.00;53.30;;;;;;5053067;28;20253;-73
2023/08/08 11:21:49;;;;;;;1.50;0.60;;;23.70;54.40;;;;;;5052547;28;20417;-74
2023/08/08 11:24:15;;;;;;;0.40;0.40;;;23.60;53.80;;;;;;5053015;28;20420;-71
2023/08/08 11:26:43;;;;;;;0.90;0.47;;;23.50;55.80;;;;;;5052753;28;20419;-72
2023/08/08 11:29:09;;;;;;;0.70;0.70;;;23.40;54.70;;;;;;5052803;28;20379;-72
2023/08/08 11:31:35;;;;;;;0.50;0.50;;;23.50;54.50;;;;;;5052498;28;20414;-73
2023/08/08 11:34:01;;;;;;;0.40;0.40;;;23.20;53.80;;;;;;5053948;28;20198;-72
2023/08/08 11:36:30;;;;;;;0.40;0.40;;;23.10;54.30;;;;;;5056604;28;20253;-73
2023/08/08 11:38:57;;;;;;;0.50;0.50;;;23.00;54.40;;;;;;5056607;28;20405;-73
2023/08/08 11:41:23;;;;;;;0.63;0.63;;;22.80;55.70;;;;;;5056105;28;20395;-72
2023/08/08 11:43:50;;;;;;;0.67;0.67;;;22.60;55.60;;;;;;5056458;28;20747;-73
2023/08/08 11:46:17;;;;;;;0.50;0.50;;;22.70;58.10;;;;;;5056429;28;20397;-72
2023/08/08 11:48:46;;;;;;;2.37;0.40;;;22.60;54.50;;;;;;5056259;28;20405;-72
2023/08/08 11:51:14;;;;;;;0.73;0.70;;;22.70;54.90;;;;;;5055772;28;20791;-73
2023/08/08 11:53:50;;;;;;;1.07;0.60;;;22.80;56.50;;;;;;5057144;28;20900;-73
2023/08/08 11:56:18;;;;;;;0.60;0.60;;;23.40;77.20;;;;;;5056018;28;20411;-72
2023/08/08 11:58:44;;;;;;;0.40;0.40;;;23.10;54.90;;;;;;5055248;28;20488;-71
2023/08/08 12:01:10;;;;;;;1.43;0.47;;;22.90;54.40;;;;;;5055603;28;20885;-71
2023/08/08 12:03:39;;;;;;;0.40;0.40;;;22.10;88.30;;;;;;5053803;28;20169;-72
2023/08/08 12:06:12;;;;;;;0.70;0.50;;;22.20;57.20;;;;;;5055731;28;20511;-72
2023/08/08 12:08:40;;;;;;;0.70;0.70;;;21.60;55.80;;;;;;5054826;28;20767;-73
2023/08/08 12:11:05;;;;;;;0.47;0.47;;;21.70;58.00;;;;;;5052862;28;20434;-73
2023/08/08 12:13:31;;;;;;;1.13;0.73;;;21.80;56.90;;;;;;5053967;28;20429;-73
2023/08/08 12:15:58;;;;;;;0.87;0.83;;;21.60;58.30;;;;;;5055198;28;20192;-72
2023/08/08 12:18:24;;;;;;;0.83;0.67;;;21.60;58.10;;;;;;5055196;28;20806;-71
2023/08/08 12:20:50;;;;;;;0.60;0.60;;;21.80;57.70;;;;;;5054997;28;20499;-71
2023/08/08 12:23:15;;;;;;;0.63;0.50;;;23.30;59.80;;;;;;5055534;28;20175;-71
2023/08/08 12:25:42;;;;;;;0.70;0.67;;;22.00;59.90;;;;;;5055480;28;20278;-71
2023/08/08 12:28:08;;;;;;;0.87;0.40;;;21.80;57.60;;;;;;5055607;28;20186;-71
2023/08/08 12:30:34;;;;;;;4.00;1.73;;;21.80;55.80;;;;;;5055494;28;20434;-72
2023/08/08 12:33:00;;;;;;;0.70;0.47;;;21.60;71.60;;;;;;5055294;28;20174;-71
2023/08/08 12:35:27;;;;;;;0.50;0.50;;;21.90;56.00;;;;;;5055492;28;20262;-72
2023/08/08 12:37:53;;;;;;;0.60;0.60;;;21.80;53.80;;;;;;5055698;28;20449;-71
2023/08/08 12:40:18;;;;;;;1.20;1.00;;;21.70;89.20;;;;;;5055234;28;20444;-70
2023/08/08 12:42:44;;;;;;;0.40;0.40;;;;;;;;;;5055090;28;20497;-71
2023/08/08 12:45:10;;;;;;;0.60;0.60;;;22.10;57.30;;;;;;5055306;28;20629;-72
2023/08/08 12:47:37;;;;;;;0.70;0.50;;;22.20;56.90;;;;;;5055128;28;20408;-73
2023/08/08 12:50:04;;;;;;;0.40;0.40;;;22.40;56.30;;;;;;5055039;28;20424;-73